sensor_id;sensor_type;location;lat;lon;timestamp;P1;durP1;ratioP1;P2;durP2;ratioP2
65825;SDS011;52586;-43.152;172.732;2023-01-13T00:01:50;1.73;;;0.80;;
65825;SDS011;52586;-43.152;172.732;2023-01-13T00:04:23;0.98;;;0.70;;
65825;SDS011;52586;-43.152;172.732;2023-01-13T00:06:53;1.08;;;0.77;;
65825;SDS011;52586;-43.152;172.732;2023-01-13T00:09:24;1.20;;;0.80;;
65825;SDS011;52586;-43.152;172.732;2023-01-13T00:11:55;2.60;;;0.70;;
65825;SDS011;52586;-43.152;172.732;2023-01-13T00:14:25;1.02;;;0.60;;
65825;SDS011;52586;-43.152;172.732;2023-01-13T00:16:57;1.33;;;0.70;;
65825;SDS011;52586;-43.152;172.732;2023-01-13T00:19:30;0.90;;;0.60;;
65825;SDS011;52586;-43.152;172.732;2023-01-13T00:22:00;1.00;;;0.52;;
65825;SDS011;52586;-43.152;172.732;2023-01-13T00:24:31;0.80;;;0.70;;
65825;SDS011;52586;-43.152;172.732;2023-01-13T00:27:02;1.13;;;0.60;;
65825;SDS011;52586;-43.152;172.732;2023-01-13T00:29:33;1.42;;;0.88;;
65825;SDS011;52586;-43.152;172.732;2023-01-13T00:32:03;2.85;;;1.10;;
65825;SDS011;52586;-43.152;172.732;2023-01-13T00:34:36;1.27;;;0.80;;
65825;SDS011;52586;-43.152;172.732;2023-01-13T00:37:06;1.80;;;0.80;;
65825;SDS011;52586;-43.152;172.732;2023-01-13T00:39:38;1.58;;;0.77;;
65825;SDS011;52586;-43.152;172.732;2023-01-13T00:42:08;1.25;;;0.75;;
65825;SDS011;52586;-43.152;172.732;2023-01-13T00:44:55;0.73;;;0.50;;
65825;SDS011;52586;-43.152;172.732;2023-01-13T00:47:26;3.03;;;0.68;;
65825;SDS011;52586;-43.152;172.732;2023-01-13T00:49:59;1.35;;;0.75;;
65825;SDS011;52586;-43.152;172.732;2023-01-13T00:52:30;1.75;;;0.70;;
65825;SDS011;52586;-43.152;172.732;2023-01-13T00:55:01;1.63;;;0.77;;
65825;SDS011;52586;-43.152;172.732;2023-01-13T00:57:33;1.27;;;0.70;;
65825;SDS011;52586;-43.152;172.732;2023-01-13T01:00:05;1.85;;;0.60;;
65825;SDS011;52586;-43.152;172.732;2023-01-13T01:02:36;1.75;;;0.80;;
65825;SDS011;52586;-43.152;172.732;2023-01-13T01:05:09;1.40;;;0.80;;
65825;SDS011;52586;-43.152;172.732;2023-01-13T01:07:40;1.48;;;0.75;;
65825;SDS011;52586;-43.152;172.732;2023-01-13T01:10:11;0.80;;;0.70;;
65825;SDS011;52586;-43.152;172.732;2023-01-13T01:12:41;1.30;;;0.50;;
65825;SDS011;52586;-43.152;172.732;2023-01-13T01:15:12;1.42;;;1.00;;
65825;SDS011;52586;-43.152;172.732;2023-01-13T01:17:43;1.23;;;0.73;;
65825;SDS011;52586;-43.152;172.732;2023-01-13T01:20:16;2.30;;;0.60;;
65825;SDS011;52586;-43.152;172.732;2023-01-13T01:22:46;1.55;;;0.60;;
65825;SDS011;52586;-43.152;172.732;2023-01-13T01:25:17;1.15;;;0.80;;
65825;SDS011;52586;-43.152;172.732;2023-01-13T01:27:48;1.17;;;0.57;;
65825;SDS011;52586;-43.152;172.732;2023-01-13T01:30:18;1.92;;;0.80;;
65825;SDS011;52586;-43.152;172.732;2023-01-13T01:32:49;1.13;;;0.65;;
65825;SDS011;52586;-43.152;172.732;2023-01-13T01:35:22;1.10;;;0.80;;
65825;SDS011;52586;-43.152;172.732;2023-01-13T01:37:52;1.60;;;0.75;;
65825;SDS011;52586;-43.152;172.732;2023-01-13T01:40:25;2.05;;;0.80;;
65825;SDS011;52586;-43.152;172.732;2023-01-13T01:42:55;1.90;;;0.75;;
65825;SDS011;52586;-43.152;172.732;2023-01-13T01:45:42;2.38;;;0.70;;
65825;SDS011;52586;-43.152;172.732;2023-01-13T01:48:13;3.00;;;0.75;;
65825;SDS011;52586;-43.152;172.732;2023-01-13T01:50:45;1.38;;;0.50;;
65825;SDS011;52586;-43.152;172.732;2023-01-13T01:53:17;0.95;;;0.60;;
65825;SDS011;52586;-43.152;172.732;2023-01-13T01:55:51;3.33;;;0.90;;
65825;SDS011;52586;-43.152;172.732;2023-01-13T01:58:23;1.33;;;0.70;;
65825;SDS011;52586;-43.152;172.732;2023-01-13T02:00:56;1.60;;;0.70;;
65825;SDS011;52586;-43.152;172.732;2023-01-13T02:03:28;2.53;;;0.70;;
65825;SDS011;52586;-43.152;172.732;2023-01-13T02:06:01;1.67;;;0.60;;
65825;SDS011;52586;-43.152;172.732;2023-01-13T02:08:32;0.93;;;0.60;;
65825;SDS011;52586;-43.152;172.732;2023-01-13T02:11:05;2.05;;;0.85;;
65825;SDS011;52586;-43.152;172.732;2023-01-13T02:13:56;1.17;;;0.65;;
65825;SDS011;52586;-43.152;172.732;2023-01-13T02:16:25;1.88;;;0.80;;
65825;SDS011;52586;-43.152;172.732;2023-01-13T02:18:57;1.75;;;0.73;;
65825;SDS011;52586;-43.152;172.732;2023-01-13T02:21:48;0.93;;;0.70;;
65825;SDS011;52586;-43.152;172.732;2023-01-13T02:24:55;0.95;;;0.60;;
65825;SDS011;52586;-43.152;172.732;2023-01-13T02:27:56;0.70;;;0.55;;
65825;SDS011;52586;-43.152;172.732;2023-01-13T02:30:41;1.95;;;0.70;;
65825;SDS011;52586;-43.152;172.732;2023-01-13T02:33:34;1.00;;;0.80;;
65825;SDS011;52586;-43.152;172.732;2023-01-13T02:36:11;2.20;;;0.75;;
65825;SDS011;52586;-43.152;172.732;2023-01-13T02:38:49;2.00;;;0.77;;
65825;SDS011;52586;-43.152;172.732;2023-01-13T02:41:25;1.55;;;0.90;;
65825;SDS011;52586;-43.152;172.732;2023-01-13T02:44:15;0.82;;;0.70;;
65825;SDS011;52586;-43.152;172.732;2023-01-13T02:46:55;2.08;;;0.75;;
65825;SDS011;52586;-43.152;172.732;2023-01-13T02:49:30;3.63;;;1.02;;
65825;SDS011;52586;-43.152;172.732;2023-01-13T02:52:06;1.23;;;0.65;;
65825;SDS011;52586;-43.152;172.732;2023-01-13T02:54:41;2.03;;;0.70;;
65825;SDS011;52586;-43.152;172.732;2023-01-13T02:57:16;1.60;;;0.80;;
65825;SDS011;52586;-43.152;172.732;2023-01-13T02:59:48;4.93;;;0.90;;
65825;SDS011;52586;-43.152;172.732;2023-01-13T03:02:23;3.08;;;1.00;;
65825;SDS011;52586;-43.152;172.732;2023-01-13T03:04:56;1.25;;;0.60;;
65825;SDS011;52586;-43.152;172.732;2023-01-13T03:07:45;3.15;;;1.00;;
65825;SDS011;52586;-43.152;172.732;2023-01-13T03:10:35;3.08;;;0.88;;
65825;SDS011;52586;-43.152;172.732;2023-01-13T03:13:20;2.65;;;1.08;;
65825;SDS011;52586;-43.152;172.732;2023-01-13T03:16:08;3.85;;;0.88;;
65825;SDS011;52586;-43.152;172.732;2023-01-13T03:18:49;1.95;;;0.88;;
65825;SDS011;52586;-43.152;172.732;2023-01-13T03:21:27;1.45;;;0.70;;
65825;SDS011;52586;-43.152;172.732;2023-01-13T03:24:05;1.10;;;0.63;;
65825;SDS011;52586;-43.152;172.732;2023-01-13T03:26:39;1.73;;;0.77;;
65825;SDS011;52586;-43.152;172.732;2023-01-13T03:29:16;1.13;;;0.63;;
65825;SDS011;52586;-43.152;172.732;2023-01-13T03:31:51;2.63;;;0.77;;
65825;SDS011;52586;-43.152;172.732;2023-01-13T03:34:29;2.47;;;0.80;;
65825;SDS011;52586;-43.152;172.732;2023-01-13T03:37:02;2.22;;;0.80;;
65825;SDS011;52586;-43.152;172.732;2023-01-13T03:39:36;2.47;;;0.88;;
65825;SDS011;52586;-43.152;172.732;2023-01-13T03:42:12;2.58;;;0.80;;
65825;SDS011;52586;-43.152;172.732;2023-01-13T03:44:47;3.22;;;0.68;;
65825;SDS011;52586;-43.152;172.732;2023-01-13T03:47:21;1.33;;;0.68;;
65825;SDS011;52586;-43.152;172.732;2023-01-13T03:50:01;2.13;;;0.80;;
65825;SDS011;52586;-43.152;172.732;2023-01-13T03:52:36;3.10;;;0.70;;
65825;SDS011;52586;-43.152;172.732;2023-01-13T03:55:11;1.63;;;0.75;;
65825;SDS011;52586;-43.152;172.732;2023-01-13T03:57:44;1.45;;;0.63;;
65825;SDS011;52586;-43.152;172.732;2023-01-13T04:00:18;1.60;;;0.60;;
65825;SDS011;52586;-43.152;172.732;2023-01-13T04:02:55;1.17;;;0.57;;
65825;SDS011;52586;-43.152;172.732;2023-01-13T04:05:35;1.77;;;0.50;;
65825;SDS011;52586;-43.152;172.732;2023-01-13T04:08:11;1.55;;;0.70;;
65825;SDS011;52586;-43.152;172.732;2023-01-13T04:10:49;1.48;;;0.73;;
65825;SDS011;52586;-43.152;172.732;2023-01-13T04:13:24;0.85;;;0.57;;
65825;SDS011;52586;-43.152;172.732;2023-01-13T04:15:59;1.83;;;0.60;;
65825;SDS011;52586;-43.152;172.732;2023-01-13T04:18:30;0.85;;;0.60;;
65825;SDS011;52586;-43.152;172.732;2023-01-13T04:21:02;1.30;;;0.60;;
65825;SDS011;52586;-43.152;172.732;2023-01-13T04:23:34;2.15;;;0.60;;
65825;SDS011;52586;-43.152;172.732;2023-01-13T04:26:05;1.63;;;0.75;;
65825;SDS011;52586;-43.152;172.732;2023-01-13T04:28:35;1.23;;;0.52;;
65825;SDS011;52586;-43.152;172.732;2023-01-13T04:31:06;1.63;;;0.63;;
65825;SDS011;52586;-43.152;172.732;2023-01-13T04:33:37;1.80;;;0.57;;
65825;SDS011;52586;-43.152;172.732;2023-01-13T04:36:10;1.73;;;0.70;;
65825;SDS011;52586;-43.152;172.732;2023-01-13T04:38:40;1.30;;;0.70;;
65825;SDS011;52586;-43.152;172.732;2023-01-13T04:41:11;1.33;;;0.55;;
65825;SDS011;52586;-43.152;172.732;2023-01-13T04:43:42;1.77;;;0.68;;
65825;SDS011;52586;-43.152;172.732;2023-01-13T04:46:12;1.00;;;0.60;;
65825;SDS011;52586;-43.152;172.732;2023-01-13T04:48:43;1.83;;;0.73;;
65825;SDS011;52586;-43.152;172.732;2023-01-13T04:51:16;1.58;;;0.52;;
65825;SDS011;52586;-43.152;172.732;2023-01-13T04:53:46;1.25;;;0.73;;
65825;SDS011;52586;-43.152;172.732;2023-01-13T04:56:17;1.40;;;0.63;;
65825;SDS011;52586;-43.152;172.732;2023-01-13T04:58:48;1.10;;;0.70;;
65825;SDS011;52586;-43.152;172.732;2023-01-13T05:01:18;1.58;;;0.60;;
65825;SDS011;52586;-43.152;172.732;2023-01-13T05:03:49;0.95;;;0.60;;
65825;SDS011;52586;-43.152;172.732;2023-01-13T05:06:22;1.25;;;0.60;;
65825;SDS011;52586;-43.152;172.732;2023-01-13T05:08:52;1.23;;;0.60;;
65825;SDS011;52586;-43.152;172.732;2023-01-13T05:11:23;2.08;;;0.70;;
65825;SDS011;52586;-43.152;172.732;2023-01-13T05:14:10;0.52;;;0.40;;
65825;SDS011;52586;-43.152;172.732;2023-01-13T05:16:56;1.02;;;0.40;;
65825;SDS011;52586;-43.152;172.732;2023-01-13T05:19:31;0.57;;;0.57;;
65825;SDS011;52586;-43.152;172.732;2023-01-13T05:22:06;0.98;;;0.60;;
65825;SDS011;52586;-43.152;172.732;2023-01-13T05:24:52;0.60;;;0.50;;
65825;SDS011;52586;-43.152;172.732;2023-01-13T05:27:39;0.60;;;0.50;;
65825;SDS011;52586;-43.152;172.732;2023-01-13T05:30:10;0.57;;;0.40;;
65825;SDS011;52586;-43.152;172.732;2023-01-13T05:32:41;1.08;;;0.60;;
65825;SDS011;52586;-43.152;172.732;2023-01-13T05:35:11;1.63;;;0.80;;
65825;SDS011;52586;-43.152;172.732;2023-01-13T05:37:45;1.48;;;0.60;;
65825;SDS011;52586;-43.152;172.732;2023-01-13T05:40:16;0.70;;;0.60;;
65825;SDS011;52586;-43.152;172.732;2023-01-13T05:43:04;1.42;;;0.50;;
65825;SDS011;52586;-43.152;172.732;2023-01-13T05:45:51;1.33;;;0.68;;
65825;SDS011;52586;-43.152;172.732;2023-01-13T05:48:24;0.95;;;0.60;;
65825;SDS011;52586;-43.152;172.732;2023-01-13T05:50:56;1.40;;;0.70;;
65825;SDS011;52586;-43.152;172.732;2023-01-13T05:53:29;1.30;;;0.60;;
65825;SDS011;52586;-43.152;172.732;2023-01-13T05:56:00;1.40;;;0.60;;
65825;SDS011;52586;-43.152;172.732;2023-01-13T05:58:33;1.58;;;0.63;;
65825;SDS011;52586;-43.152;172.732;2023-01-13T06:01:04;0.90;;;0.60;;
65825;SDS011;52586;-43.152;172.732;2023-01-13T06:03:36;1.00;;;0.60;;
65825;SDS011;52586;-43.152;172.732;2023-01-13T06:06:07;1.45;;;0.63;;
65825;SDS011;52586;-43.152;172.732;2023-01-13T06:08:39;1.33;;;0.52;;
65825;SDS011;52586;-43.152;172.732;2023-01-13T06:11:10;1.23;;;0.70;;
65825;SDS011;52586;-43.152;172.732;2023-01-13T06:13:41;1.08;;;0.50;;
65825;SDS011;52586;-43.152;172.732;2023-01-13T06:16:11;1.60;;;0.68;;
65825;SDS011;52586;-43.152;172.732;2023-01-13T06:18:42;2.67;;;0.90;;
65825;SDS011;52586;-43.152;172.732;2023-01-13T06:21:13;0.68;;;0.50;;
65825;SDS011;52586;-43.152;172.732;2023-01-13T06:23:45;2.13;;;0.77;;
65825;SDS011;52586;-43.152;172.732;2023-01-13T06:26:16;1.10;;;0.50;;
65825;SDS011;52586;-43.152;172.732;2023-01-13T06:28:50;1.92;;;0.45;;
65825;SDS011;52586;-43.152;172.732;2023-01-13T06:31:21;1.73;;;0.60;;
65825;SDS011;52586;-43.152;172.732;2023-01-13T06:33:54;1.33;;;0.60;;
65825;SDS011;52586;-43.152;172.732;2023-01-13T06:36:29;2.22;;;0.70;;
65825;SDS011;52586;-43.152;172.732;2023-01-13T06:39:06;1.02;;;0.70;;
65825;SDS011;52586;-43.152;172.732;2023-01-13T06:41:39;0.52;;;0.50;;
65825;SDS011;52586;-43.152;172.732;2023-01-13T06:44:26;2.03;;;0.52;;
65825;SDS011;52586;-43.152;172.732;2023-01-13T06:46:58;1.20;;;0.60;;
65825;SDS011;52586;-43.152;172.732;2023-01-13T06:49:28;0.95;;;0.73;;
65825;SDS011;52586;-43.152;172.732;2023-01-13T06:51:59;1.92;;;0.50;;
65825;SDS011;52586;-43.152;172.732;2023-01-13T06:54:32;0.90;;;0.40;;
65825;SDS011;52586;-43.152;172.732;2023-01-13T06:57:03;1.45;;;0.60;;
65825;SDS011;52586;-43.152;172.732;2023-01-13T06:59:33;1.45;;;0.70;;
65825;SDS011;52586;-43.152;172.732;2023-01-13T07:02:04;1.10;;;0.60;;
65825;SDS011;52586;-43.152;172.732;2023-01-13T07:04:35;0.82;;;0.55;;
65825;SDS011;52586;-43.152;172.732;2023-01-13T07:07:05;1.27;;;0.52;;
65825;SDS011;52586;-43.152;172.732;2023-01-13T07:09:39;0.85;;;0.50;;
65825;SDS011;52586;-43.152;172.732;2023-01-13T07:12:11;1.60;;;0.60;;
65825;SDS011;52586;-43.152;172.732;2023-01-13T07:14:41;0.85;;;0.52;;
65825;SDS011;52586;-43.152;172.732;2023-01-13T07:17:28;1.00;;;0.40;;
65825;SDS011;52586;-43.152;172.732;2023-01-13T07:19:59;1.73;;;0.80;;
65825;SDS011;52586;-43.152;172.732;2023-01-13T07:22:29;2.13;;;0.70;;
65825;SDS011;52586;-43.152;172.732;2023-01-13T07:25:02;1.63;;;0.60;;
65825;SDS011;52586;-43.152;172.732;2023-01-13T07:27:33;1.52;;;0.65;;
65825;SDS011;52586;-43.152;172.732;2023-01-13T07:30:04;0.68;;;0.60;;
65825;SDS011;52586;-43.152;172.732;2023-01-13T07:32:36;1.25;;;0.70;;
65825;SDS011;52586;-43.152;172.732;2023-01-13T07:35:06;1.38;;;0.65;;
65825;SDS011;52586;-43.152;172.732;2023-01-13T07:37:37;1.73;;;0.70;;
65825;SDS011;52586;-43.152;172.732;2023-01-13T07:40:10;1.67;;;0.52;;
65825;SDS011;52586;-43.152;172.732;2023-01-13T07:42:41;0.85;;;0.60;;
65825;SDS011;52586;-43.152;172.732;2023-01-13T07:45:28;1.20;;;0.60;;
65825;SDS011;52586;-43.152;172.732;2023-01-13T07:47:58;1.08;;;0.50;;
65825;SDS011;52586;-43.152;172.732;2023-01-13T07:50:29;1.35;;;0.68;;
65825;SDS011;52586;-43.152;172.732;2023-01-13T07:53:00;0.65;;;0.50;;
65825;SDS011;52586;-43.152;172.732;2023-01-13T07:55:32;1.52;;;0.90;;
65825;SDS011;52586;-43.152;172.732;2023-01-13T07:58:03;2.55;;;0.70;;
65825;SDS011;52586;-43.152;172.732;2023-01-13T08:00:34;1.08;;;0.75;;
65825;SDS011;52586;-43.152;172.732;2023-01-13T08:03:05;1.00;;;0.55;;
65825;SDS011;52586;-43.152;172.732;2023-01-13T08:05:36;1.38;;;0.60;;
65825;SDS011;52586;-43.152;172.732;2023-01-13T08:08:07;1.35;;;0.60;;
65825;SDS011;52586;-43.152;172.732;2023-01-13T08:10:39;0.57;;;0.55;;
65825;SDS011;52586;-43.152;172.732;2023-01-13T08:13:13;1.05;;;0.60;;
65825;SDS011;52586;-43.152;172.732;2023-01-13T08:15:46;1.23;;;0.60;;
65825;SDS011;52586;-43.152;172.732;2023-01-13T08:18:18;1.55;;;0.75;;
65825;SDS011;52586;-43.152;172.732;2023-01-13T08:20:50;1.00;;;0.68;;
65825;SDS011;52586;-43.152;172.732;2023-01-13T08:23:21;0.65;;;0.60;;
65825;SDS011;52586;-43.152;172.732;2023-01-13T08:25:54;1.88;;;0.70;;
65825;SDS011;52586;-43.152;172.732;2023-01-13T08:28:28;1.15;;;0.50;;
65825;SDS011;52586;-43.152;172.732;2023-01-13T08:30:59;1.60;;;0.60;;
65825;SDS011;52586;-43.152;172.732;2023-01-13T08:33:31;0.95;;;0.63;;
65825;SDS011;52586;-43.152;172.732;2023-01-13T08:36:02;1.65;;;0.73;;
65825;SDS011;52586;-43.152;172.732;2023-01-13T08:38:34;0.82;;;0.60;;
65825;SDS011;52586;-43.152;172.732;2023-01-13T08:41:10;0.88;;;0.50;;
65825;SDS011;52586;-43.152;172.732;2023-01-13T08:44:02;0.70;;;0.60;;
65825;SDS011;52586;-43.152;172.732;2023-01-13T08:46:34;1.30;;;0.70;;
65825;SDS011;52586;-43.152;172.732;2023-01-13T08:49:05;1.30;;;0.60;;
65825;SDS011;52586;-43.152;172.732;2023-01-13T08:51:35;1.33;;;0.60;;
65825;SDS011;52586;-43.152;172.732;2023-01-13T08:54:06;1.08;;;0.60;;
65825;SDS011;52586;-43.152;172.732;2023-01-13T08:56:39;1.85;;;0.80;;
65825;SDS011;52586;-43.152;172.732;2023-01-13T08:59:10;0.80;;;0.68;;
65825;SDS011;52586;-43.152;172.732;2023-01-13T09:01:41;1.13;;;0.50;;
65825;SDS011;52586;-43.152;172.732;2023-01-13T09:04:14;1.35;;;0.60;;
65825;SDS011;52586;-43.152;172.732;2023-01-13T09:06:46;0.80;;;0.55;;
65825;SDS011;52586;-43.152;172.732;2023-01-13T09:09:17;1.70;;;0.63;;
65825;SDS011;52586;-43.152;172.732;2023-01-13T09:11:50;1.13;;;0.70;;
65825;SDS011;52586;-43.152;172.732;2023-01-13T09:14:37;1.08;;;0.60;;
65825;SDS011;52586;-43.152;172.732;2023-01-13T09:17:08;1.27;;;0.55;;
65825;SDS011;52586;-43.152;172.732;2023-01-13T09:19:39;0.40;;;0.40;;
65825;SDS011;52586;-43.152;172.732;2023-01-13T09:22:10;1.75;;;0.57;;
65825;SDS011;52586;-43.152;172.732;2023-01-13T09:24:44;0.80;;;0.40;;
65825;SDS011;52586;-43.152;172.732;2023-01-13T09:27:17;0.82;;;0.38;;
65825;SDS011;52586;-43.152;172.732;2023-01-13T09:29:48;0.65;;;0.40;;
65825;SDS011;52586;-43.152;172.732;2023-01-13T09:32:18;0.80;;;0.60;;
65825;SDS011;52586;-43.152;172.732;2023-01-13T09:34:49;0.75;;;0.52;;
65825;SDS011;52586;-43.152;172.732;2023-01-13T09:37:28;1.15;;;0.50;;
65825;SDS011;52586;-43.152;172.732;2023-01-13T09:39:59;0.93;;;0.40;;
65825;SDS011;52586;-43.152;172.732;2023-01-13T09:42:35;0.80;;;0.50;;
65825;SDS011;52586;-43.152;172.732;2023-01-13T09:45:28;1.20;;;0.65;;
65825;SDS011;52586;-43.152;172.732;2023-01-13T09:48:04;0.55;;;0.47;;
65825;SDS011;52586;-43.152;172.732;2023-01-13T09:50:52;0.70;;;0.52;;
65825;SDS011;52586;-43.152;172.732;2023-01-13T09:53:31;1.10;;;0.70;;
65825;SDS011;52586;-43.152;172.732;2023-01-13T09:56:07;1.63;;;0.70;;
65825;SDS011;52586;-43.152;172.732;2023-01-13T09:58:47;1.45;;;0.60;;
65825;SDS011;52586;-43.152;172.732;2023-01-13T10:01:19;2.97;;;0.95;;
65825;SDS011;52586;-43.152;172.732;2023-01-13T10:03:55;2.58;;;1.02;;
65825;SDS011;52586;-43.152;172.732;2023-01-13T10:06:31;3.25;;;0.93;;
65825;SDS011;52586;-43.152;172.732;2023-01-13T10:09:08;1.83;;;0.90;;
65825;SDS011;52586;-43.152;172.732;2023-01-13T10:11:41;4.10;;;1.00;;
65825;SDS011;52586;-43.152;172.732;2023-01-13T10:14:33;1.42;;;0.95;;
65825;SDS011;52586;-43.152;172.732;2023-01-13T10:17:10;3.13;;;1.00;;
65825;SDS011;52586;-43.152;172.732;2023-01-13T10:19:47;2.50;;;0.90;;
65825;SDS011;52586;-43.152;172.732;2023-01-13T10:25:19;4.78;;;2.10;;
65825;SDS011;52586;-43.152;172.732;2023-01-13T10:28:01;4.72;;;1.40;;
65825;SDS011;52586;-43.152;172.732;2023-01-13T10:30:40;4.72;;;1.48;;
65825;SDS011;52586;-43.152;172.732;2023-01-13T10:33:12;2.72;;;1.33;;
65825;SDS011;52586;-43.152;172.732;2023-01-13T10:35:48;4.25;;;1.35;;
65825;SDS011;52586;-43.152;172.732;2023-01-13T10:38:21;2.78;;;1.60;;
65825;SDS011;52586;-43.152;172.732;2023-01-13T10:40:53;4.78;;;1.80;;
65825;SDS011;52586;-43.152;172.732;2023-01-13T10:43:25;4.50;;;1.88;;
65825;SDS011;52586;-43.152;172.732;2023-01-13T10:45:59;4.03;;;1.25;;
65825;SDS011;52586;-43.152;172.732;2023-01-13T10:48:32;4.45;;;1.58;;
65825;SDS011;52586;-43.152;172.732;2023-01-13T10:51:21;2.63;;;1.48;;
65825;SDS011;52586;-43.152;172.732;2023-01-13T10:53:59;3.40;;;1.45;;
65825;SDS011;52586;-43.152;172.732;2023-01-13T10:56:43;5.00;;;2.13;;
65825;SDS011;52586;-43.152;172.732;2023-01-13T10:59:15;4.80;;;2.03;;
65825;SDS011;52586;-43.152;172.732;2023-01-13T11:01:57;3.45;;;2.08;;
65825;SDS011;52586;-43.152;172.732;2023-01-13T11:04:30;3.92;;;2.10;;
65825;SDS011;52586;-43.152;172.732;2023-01-13T11:07:03;5.13;;;1.92;;
65825;SDS011;52586;-43.152;172.732;2023-01-13T11:09:44;3.25;;;1.70;;
65825;SDS011;52586;-43.152;172.732;2023-01-13T11:12:28;3.22;;;1.88;;
65825;SDS011;52586;-43.152;172.732;2023-01-13T11:15:01;3.53;;;1.77;;
65825;SDS011;52586;-43.152;172.732;2023-01-13T11:17:38;4.22;;;1.65;;
65825;SDS011;52586;-43.152;172.732;2023-01-13T11:20:14;2.42;;;1.75;;
65825;SDS011;52586;-43.152;172.732;2023-01-13T11:22:48;2.50;;;1.73;;
65825;SDS011;52586;-43.152;172.732;2023-01-13T11:25:21;2.50;;;1.80;;
65825;SDS011;52586;-43.152;172.732;2023-01-13T11:27:59;3.60;;;1.90;;
65825;SDS011;52586;-43.152;172.732;2023-01-13T11:30:35;2.30;;;1.67;;
65825;SDS011;52586;-43.152;172.732;2023-01-13T11:33:33;3.85;;;1.80;;
65825;SDS011;52586;-43.152;172.732;2023-01-13T11:36:10;3.30;;;1.80;;
65825;SDS011;52586;-43.152;172.732;2023-01-13T11:38:46;5.32;;;1.90;;
65825;SDS011;52586;-43.152;172.732;2023-01-13T11:41:27;3.95;;;2.10;;
65825;SDS011;52586;-43.152;172.732;2023-01-13T11:44:14;4.45;;;1.70;;
65825;SDS011;52586;-43.152;172.732;2023-01-13T11:46:48;2.85;;;1.45;;
65825;SDS011;52586;-43.152;172.732;2023-01-13T11:49:24;2.38;;;1.50;;
65825;SDS011;52586;-43.152;172.732;2023-01-13T11:51:58;2.45;;;1.52;;
65825;SDS011;52586;-43.152;172.732;2023-01-13T11:54:38;2.55;;;1.60;;
65825;SDS011;52586;-43.152;172.732;2023-01-13T11:57:24;4.20;;;1.98;;
65825;SDS011;52586;-43.152;172.732;2023-01-13T12:00:13;3.03;;;1.77;;
65825;SDS011;52586;-43.152;172.732;2023-01-13T12:02:56;4.05;;;1.90;;
65825;SDS011;52586;-43.152;172.732;2023-01-13T12:05:52;2.88;;;1.90;;
65825;SDS011;52586;-43.152;172.732;2023-01-13T12:08:35;1.90;;;1.27;;
65825;SDS011;52586;-43.152;172.732;2023-01-13T12:11:20;3.60;;;1.70;;
65825;SDS011;52586;-43.152;172.732;2023-01-13T12:14:02;2.45;;;1.42;;
65825;SDS011;52586;-43.152;172.732;2023-01-13T12:16:44;2.33;;;1.42;;
65825;SDS011;52586;-43.152;172.732;2023-01-13T12:19:22;2.97;;;1.60;;
65825;SDS011;52586;-43.152;172.732;2023-01-13T12:22:05;3.20;;;1.70;;
65825;SDS011;52586;-43.152;172.732;2023-01-13T12:24:42;2.85;;;1.50;;
65825;SDS011;52586;-43.152;172.732;2023-01-13T12:27:18;2.50;;;1.42;;
65825;SDS011;52586;-43.152;172.732;2023-01-13T12:29:54;2.17;;;1.35;;
65825;SDS011;52586;-43.152;172.732;2023-01-13T12:32:32;2.10;;;1.50;;
65825;SDS011;52586;-43.152;172.732;2023-01-13T12:35:14;2.42;;;1.55;;
65825;SDS011;52586;-43.152;172.732;2023-01-13T12:37:53;2.22;;;1.38;;
65825;SDS011;52586;-43.152;172.732;2023-01-13T12:40:37;2.65;;;1.20;;
65825;SDS011;52586;-43.152;172.732;2023-01-13T12:43:16;3.05;;;1.30;;
65825;SDS011;52586;-43.152;172.732;2023-01-13T12:49:06;1.95;;;1.30;;
65825;SDS011;52586;-43.152;172.732;2023-01-13T12:51:59;3.92;;;1.50;;
65825;SDS011;52586;-43.152;172.732;2023-01-13T12:55:02;1.88;;;1.20;;
65825;SDS011;52586;-43.152;172.732;2023-01-13T12:57:57;2.10;;;1.20;;
65825;SDS011;52586;-43.152;172.732;2023-01-13T13:00:53;2.10;;;1.20;;
65825;SDS011;52586;-43.152;172.732;2023-01-13T13:03:34;2.15;;;1.25;;
65825;SDS011;52586;-43.152;172.732;2023-01-13T13:06:05;2.40;;;1.33;;
65825;SDS011;52586;-43.152;172.732;2023-01-13T13:08:57;1.95;;;1.20;;
65825;SDS011;52586;-43.152;172.732;2023-01-13T13:17:40;2.00;;;1.25;;
65825;SDS011;52586;-43.152;172.732;2023-01-13T13:26:21;3.33;;;1.27;;
65825;SDS011;52586;-43.152;172.732;2023-01-13T13:29:18;2.72;;;1.30;;
65825;SDS011;52586;-43.152;172.732;2023-01-13T13:35:05;2.30;;;1.08;;
65825;SDS011;52586;-43.152;172.732;2023-01-13T13:37:48;1.48;;;1.15;;
65825;SDS011;52586;-43.152;172.732;2023-01-13T13:40:46;1.90;;;1.10;;
65825;SDS011;52586;-43.152;172.732;2023-01-13T13:43:38;2.13;;;1.23;;
65825;SDS011;52586;-43.152;172.732;2023-01-13T13:46:28;1.80;;;1.20;;
65825;SDS011;52586;-43.152;172.732;2023-01-13T13:49:15;1.70;;;1.13;;
65825;SDS011;52586;-43.152;172.732;2023-01-13T13:51:47;2.22;;;1.20;;
65825;SDS011;52586;-43.152;172.732;2023-01-13T13:54:26;1.58;;;0.95;;
65825;SDS011;52586;-43.152;172.732;2023-01-13T13:56:57;1.83;;;1.10;;
65825;SDS011;52586;-43.152;172.732;2023-01-13T13:59:28;1.52;;;1.20;;
65825;SDS011;52586;-43.152;172.732;2023-01-13T14:02:01;1.83;;;1.15;;
65825;SDS011;52586;-43.152;172.732;2023-01-13T14:04:43;2.22;;;1.00;;
65825;SDS011;52586;-43.152;172.732;2023-01-13T14:07:17;1.20;;;1.10;;
65825;SDS011;52586;-43.152;172.732;2023-01-13T14:09:49;1.83;;;1.10;;
65825;SDS011;52586;-43.152;172.732;2023-01-13T14:12:23;1.75;;;1.20;;
65825;SDS011;52586;-43.152;172.732;2023-01-13T14:14:55;2.08;;;1.23;;
65825;SDS011;52586;-43.152;172.732;2023-01-13T14:17:28;1.95;;;1.10;;
65825;SDS011;52586;-43.152;172.732;2023-01-13T14:20:00;1.17;;;0.95;;
65825;SDS011;52586;-43.152;172.732;2023-01-13T14:22:33;1.65;;;0.80;;
65825;SDS011;52586;-43.152;172.732;2023-01-13T14:25:04;1.77;;;1.00;;
65825;SDS011;52586;-43.152;172.732;2023-01-13T14:27:58;1.30;;;0.90;;
65825;SDS011;52586;-43.152;172.732;2023-01-13T14:30:35;2.30;;;1.08;;
65825;SDS011;52586;-43.152;172.732;2023-01-13T14:33:08;1.50;;;1.00;;
65825;SDS011;52586;-43.152;172.732;2023-01-13T14:36:03;1.77;;;1.10;;
65825;SDS011;52586;-43.152;172.732;2023-01-13T14:38:35;2.58;;;1.00;;
65825;SDS011;52586;-43.152;172.732;2023-01-13T14:41:10;1.83;;;1.20;;
65825;SDS011;52586;-43.152;172.732;2023-01-13T14:43:48;1.13;;;0.82;;
65825;SDS011;52586;-43.152;172.732;2023-01-13T14:46:21;1.95;;;0.88;;
65825;SDS011;52586;-43.152;172.732;2023-01-13T14:48:58;2.05;;;1.10;;
65825;SDS011;52586;-43.152;172.732;2023-01-13T14:51:29;1.55;;;0.90;;
65825;SDS011;52586;-43.152;172.732;2023-01-13T14:54:00;1.58;;;1.00;;
65825;SDS011;52586;-43.152;172.732;2023-01-13T14:56:41;1.60;;;1.00;;
65825;SDS011;52586;-43.152;172.732;2023-01-13T14:59:39;2.13;;;0.90;;
65825;SDS011;52586;-43.152;172.732;2023-01-13T15:10:54;2.38;;;1.02;;
65825;SDS011;52586;-43.152;172.732;2023-01-13T15:13:29;2.25;;;0.93;;
65825;SDS011;52586;-43.152;172.732;2023-01-13T15:16:04;1.30;;;0.80;;
65825;SDS011;52586;-43.152;172.732;2023-01-13T15:18:41;1.25;;;0.80;;
65825;SDS011;52586;-43.152;172.732;2023-01-13T15:21:14;1.60;;;1.10;;
65825;SDS011;52586;-43.152;172.732;2023-01-13T15:23:44;1.42;;;0.90;;
65825;SDS011;52586;-43.152;172.732;2023-01-13T15:26:16;1.52;;;0.93;;
65825;SDS011;52586;-43.152;172.732;2023-01-13T15:28:50;1.13;;;0.98;;